sensor_id;sensor_type;location;lat;lon;timestamp;P1;durP1;ratioP1;P2;durP2;ratioP2
9128;SDS011;4599;50.906;6.786;2023-08-12T00:03:41;11.47;;;8.27;;
9128;SDS011;4599;50.906;6.786;2023-08-12T00:08:04;13.13;;;8.37;;
9128;SDS011;4599;50.906;6.786;2023-08-12T00:12:26;12.10;;;8.73;;
9128;SDS011;4599;50.906;6.786;2023-08-12T00:16:49;11.57;;;8.40;;
9128;SDS011;4599;50.906;6.786;2023-08-12T00:21:11;11.00;;;8.97;;
9128;SDS011;4599;50.906;6.786;2023-08-12T00:25:33;10.37;;;9.27;;
9128;SDS011;4599;50.906;6.786;2023-08-12T00:29:55;9.43;;;8.33;;
9128;SDS011;4599;50.906;6.786;2023-08-12T00:34:18;9.83;;;8.33;;
9128;SDS011;4599;50.906;6.786;2023-08-12T00:38:40;15.83;;;8.80;;
9128;SDS011;4599;50.906;6.786;2023-08-12T00:43:02;9.23;;;7.80;;
9128;SDS011;4599;50.906;6.786;2023-08-12T00:47:24;8.37;;;7.47;;
9128;SDS011;4599;50.906;6.786;2023-08-12T00:51:50;10.60;;;7.63;;
9128;SDS011;4599;50.906;6.786;2023-08-12T00:56:14;9.50;;;8.30;;
9128;SDS011;4599;50.906;6.786;2023-08-12T01:00:36;13.97;;;9.03;;
9128;SDS011;4599;50.906;6.786;2023-08-12T01:04:59;15.43;;;10.63;;
9128;SDS011;4599;50.906;6.786;2023-08-12T01:09:22;18.03;;;11.90;;
9128;SDS011;4599;50.906;6.786;2023-08-12T01:13:45;14.60;;;11.57;;
9128;SDS011;4599;50.906;6.786;2023-08-12T01:18:11;16.57;;;12.33;;
9128;SDS011;4599;50.906;6.786;2023-08-12T01:22:36;16.70;;;12.83;;
9128;SDS011;4599;50.906;6.786;2023-08-12T01:27:00;16.73;;;12.77;;
9128;SDS011;4599;50.906;6.786;2023-08-12T01:31:23;14.07;;;12.10;;
9128;SDS011;4599;50.906;6.786;2023-08-12T01:35:54;19.20;;;13.43;;
9128;SDS011;4599;50.906;6.786;2023-08-12T01:40:21;14.90;;;12.30;;
9128;SDS011;4599;50.906;6.786;2023-08-12T01:44:45;16.93;;;12.60;;
9128;SDS011;4599;50.906;6.786;2023-08-12T01:49:07;17.10;;;13.37;;
9128;SDS011;4599;50.906;6.786;2023-08-12T01:53:29;16.83;;;13.87;;
9128;SDS011;4599;50.906;6.786;2023-08-12T01:57:51;17.13;;;13.60;;
9128;SDS011;4599;50.906;6.786;2023-08-12T02:02:15;14.87;;;13.17;;
9128;SDS011;4599;50.906;6.786;2023-08-12T02:06:37;16.03;;;13.30;;
9128;SDS011;4599;50.906;6.786;2023-08-12T02:10:59;16.40;;;13.80;;
9128;SDS011;4599;50.906;6.786;2023-08-12T02:15:21;16.03;;;14.33;;
9128;SDS011;4599;50.906;6.786;2023-08-12T02:19:44;19.03;;;14.63;;
9128;SDS011;4599;50.906;6.786;2023-08-12T02:24:07;15.00;;;13.47;;
9128;SDS011;4599;50.906;6.786;2023-08-12T02:28:29;18.57;;;14.90;;
9128;SDS011;4599;50.906;6.786;2023-08-12T02:32:51;21.47;;;15.17;;
9128;SDS011;4599;50.906;6.786;2023-08-12T02:37:14;17.53;;;13.23;;
9128;SDS011;4599;50.906;6.786;2023-08-12T02:41:36;18.13;;;13.83;;
9128;SDS011;4599;50.906;6.786;2023-08-12T02:45:58;15.43;;;12.93;;
9128;SDS011;4599;50.906;6.786;2023-08-12T02:50:19;16.83;;;12.50;;
9128;SDS011;4599;50.906;6.786;2023-08-12T02:54:43;12.93;;;11.37;;
9128;SDS011;4599;50.906;6.786;2023-08-12T02:59:05;16.60;;;11.77;;
9128;SDS011;4599;50.906;6.786;2023-08-12T03:03:27;16.00;;;12.67;;
9128;SDS011;4599;50.906;6.786;2023-08-12T03:07:49;15.17;;;12.33;;
9128;SDS011;4599;50.906;6.786;2023-08-12T03:12:13;18.40;;;12.77;;
9128;SDS011;4599;50.906;6.786;2023-08-12T03:16:35;17.10;;;13.50;;
9128;SDS011;4599;50.906;6.786;2023-08-12T03:20:57;19.10;;;14.07;;
9128;SDS011;4599;50.906;6.786;2023-08-12T03:25:19;16.20;;;14.10;;
9128;SDS011;4599;50.906;6.786;2023-08-12T03:29:42;17.20;;;14.07;;
9128;SDS011;4599;50.906;6.786;2023-08-12T03:34:04;17.77;;;14.40;;
9128;SDS011;4599;50.906;6.786;2023-08-12T03:38:26;19.10;;;15.77;;
9128;SDS011;4599;50.906;6.786;2023-08-12T03:42:47;19.97;;;16.37;;
9128;SDS011;4599;50.906;6.786;2023-08-12T03:47:11;21.40;;;19.07;;
9128;SDS011;4599;50.906;6.786;2023-08-12T03:51:33;22.37;;;18.20;;
9128;SDS011;4599;50.906;6.786;2023-08-12T03:55:55;23.10;;;20.20;;
9128;SDS011;4599;50.906;6.786;2023-08-12T04:00:17;24.97;;;19.50;;
9128;SDS011;4599;50.906;6.786;2023-08-12T04:04:41;22.63;;;20.13;;
9128;SDS011;4599;50.906;6.786;2023-08-12T04:09:05;22.37;;;19.60;;
9128;SDS011;4599;50.906;6.786;2023-08-12T04:13:28;23.43;;;18.17;;
9128;SDS011;4599;50.906;6.786;2023-08-12T04:17:51;22.97;;;17.37;;
9128;SDS011;4599;50.906;6.786;2023-08-12T04:22:14;19.90;;;15.97;;
9128;SDS011;4599;50.906;6.786;2023-08-12T04:26:37;21.20;;;15.03;;
9128;SDS011;4599;50.906;6.786;2023-08-12T04:30:59;18.47;;;13.23;;
9128;SDS011;4599;50.906;6.786;2023-08-12T04:35:21;23.50;;;14.27;;
9128;SDS011;4599;50.906;6.786;2023-08-12T04:39:44;18.07;;;14.67;;
9128;SDS011;4599;50.906;6.786;2023-08-12T04:44:06;21.73;;;16.13;;
9128;SDS011;4599;50.906;6.786;2023-08-12T04:48:30;23.00;;;18.50;;
9128;SDS011;4599;50.906;6.786;2023-08-12T04:52:52;22.73;;;17.43;;
9128;SDS011;4599;50.906;6.786;2023-08-12T04:57:15;21.77;;;17.40;;
9128;SDS011;4599;50.906;6.786;2023-08-12T05:01:37;18.10;;;16.20;;
9128;SDS011;4599;50.906;6.786;2023-08-12T05:06:15;17.40;;;14.10;;
9128;SDS011;4599;50.906;6.786;2023-08-12T05:10:37;15.17;;;13.03;;
9128;SDS011;4599;50.906;6.786;2023-08-12T05:15:00;17.13;;;12.87;;
9128;SDS011;4599;50.906;6.786;2023-08-12T05:19:22;14.53;;;12.50;;
9128;SDS011;4599;50.906;6.786;2023-08-12T05:23:44;14.47;;;12.57;;
9128;SDS011;4599;50.906;6.786;2023-08-12T05:28:06;14.07;;;12.67;;
9128;SDS011;4599;50.906;6.786;2023-08-12T05:32:29;17.87;;;14.33;;
9128;SDS011;4599;50.906;6.786;2023-08-12T05:36:51;22.90;;;18.80;;
9128;SDS011;4599;50.906;6.786;2023-08-12T05:41:14;19.17;;;15.33;;
9128;SDS011;4599;50.906;6.786;2023-08-12T05:45:36;17.03;;;14.40;;
9128;SDS011;4599;50.906;6.786;2023-08-12T05:50:00;19.27;;;12.53;;
9128;SDS011;4599;50.906;6.786;2023-08-12T05:54:21;15.43;;;11.97;;
9128;SDS011;4599;50.906;6.786;2023-08-12T05:58:44;15.60;;;11.77;;
9128;SDS011;4599;50.906;6.786;2023-08-12T06:03:06;11.10;;;9.57;;
9128;SDS011;4599;50.906;6.786;2023-08-12T06:07:31;10.80;;;9.13;;
9128;SDS011;4599;50.906;6.786;2023-08-12T06:11:53;12.30;;;8.10;;
9128;SDS011;4599;50.906;6.786;2023-08-12T06:16:15;10.90;;;7.40;;
9128;SDS011;4599;50.906;6.786;2023-08-12T06:20:37;10.53;;;6.80;;
9128;SDS011;4599;50.906;6.786;2023-08-12T06:25:03;12.83;;;5.97;;
9128;SDS011;4599;50.906;6.786;2023-08-12T06:29:26;6.33;;;5.73;;
9128;SDS011;4599;50.906;6.786;2023-08-12T06:33:48;7.13;;;4.70;;
9128;SDS011;4599;50.906;6.786;2023-08-12T06:38:10;5.37;;;4.20;;
9128;SDS011;4599;50.906;6.786;2023-08-12T06:46:56;5.00;;;4.00;;
9128;SDS011;4599;50.906;6.786;2023-08-12T06:51:18;6.43;;;3.60;;
9128;SDS011;4599;50.906;6.786;2023-08-12T06:55:43;4.63;;;3.37;;
9128;SDS011;4599;50.906;6.786;2023-08-12T07:00:08;5.57;;;3.40;;
9128;SDS011;4599;50.906;6.786;2023-08-12T07:04:31;7.10;;;3.60;;
9128;SDS011;4599;50.906;6.786;2023-08-12T07:08:53;6.77;;;3.30;;
9128;SDS011;4599;50.906;6.786;2023-08-12T07:13:15;5.50;;;3.37;;
9128;SDS011;4599;50.906;6.786;2023-08-12T07:17:39;6.20;;;2.90;;
9128;SDS011;4599;50.906;6.786;2023-08-12T07:22:01;6.77;;;2.93;;
9128;SDS011;4599;50.906;6.786;2023-08-12T07:26:22;3.90;;;2.73;;
9128;SDS011;4599;50.906;6.786;2023-08-12T07:30:44;5.30;;;3.07;;
9128;SDS011;4599;50.906;6.786;2023-08-12T07:35:08;4.13;;;2.40;;
9128;SDS011;4599;50.906;6.786;2023-08-12T07:39:30;3.10;;;2.47;;
9128;SDS011;4599;50.906;6.786;2023-08-12T07:43:52;5.93;;;2.33;;
9128;SDS011;4599;50.906;6.786;2023-08-12T07:48:15;2.90;;;2.20;;
9128;SDS011;4599;50.906;6.786;2023-08-12T07:52:38;4.17;;;2.40;;
9128;SDS011;4599;50.906;6.786;2023-08-12T07:57:00;3.13;;;2.10;;
9128;SDS011;4599;50.906;6.786;2023-08-12T08:01:22;5.33;;;2.20;;
9128;SDS011;4599;50.906;6.786;2023-08-12T08:05:45;4.43;;;2.73;;
9128;SDS011;4599;50.906;6.786;2023-08-12T08:10:09;6.87;;;3.80;;
9128;SDS011;4599;50.906;6.786;2023-08-12T08:14:31;3.97;;;2.33;;
9128;SDS011;4599;50.906;6.786;2023-08-12T08:18:53;5.70;;;3.00;;
9128;SDS011;4599;50.906;6.786;2023-08-12T08:23:16;4.53;;;2.23;;
9128;SDS011;4599;50.906;6.786;2023-08-12T08:27:40;3.73;;;2.60;;
9128;SDS011;4599;50.906;6.786;2023-08-12T08:32:05;4.03;;;2.60;;
9128;SDS011;4599;50.906;6.786;2023-08-12T08:36:27;5.07;;;2.30;;
9128;SDS011;4599;50.906;6.786;2023-08-12T08:40:49;5.50;;;2.20;;
9128;SDS011;4599;50.906;6.786;2023-08-12T08:45:13;3.00;;;2.03;;
9128;SDS011;4599;50.906;6.786;2023-08-12T08:49:35;3.33;;;2.20;;
9128;SDS011;4599;50.906;6.786;2023-08-12T08:53:57;3.20;;;1.93;;
9128;SDS011;4599;50.906;6.786;2023-08-12T08:58:24;3.13;;;2.00;;
9128;SDS011;4599;50.906;6.786;2023-08-12T09:02:50;2.60;;;1.87;;
9128;SDS011;4599;50.906;6.786;2023-08-12T09:07:13;3.47;;;2.00;;
9128;SDS011;4599;50.906;6.786;2023-08-12T09:11:35;3.30;;;1.50;;
9128;SDS011;4599;50.906;6.786;2023-08-12T09:15:59;2.80;;;1.93;;
9128;SDS011;4599;50.906;6.786;2023-08-12T09:20:23;1.97;;;1.60;;
9128;SDS011;4599;50.906;6.786;2023-08-12T09:24:45;2.30;;;1.77;;
9128;SDS011;4599;50.906;6.786;2023-08-12T09:29:06;2.57;;;1.80;;
9128;SDS011;4599;50.906;6.786;2023-08-12T09:33:28;2.87;;;1.80;;
9128;SDS011;4599;50.906;6.786;2023-08-12T09:37:52;1.77;;;1.67;;
9128;SDS011;4599;50.906;6.786;2023-08-12T09:42:14;5.80;;;1.87;;
9128;SDS011;4599;50.906;6.786;2023-08-12T09:46:37;1.67;;;1.57;;
9128;SDS011;4599;50.906;6.786;2023-08-12T09:50:58;3.23;;;1.80;;
9128;SDS011;4599;50.906;6.786;2023-08-12T09:55:24;3.33;;;1.50;;
9128;SDS011;4599;50.906;6.786;2023-08-12T09:59:46;4.07;;;1.43;;
9128;SDS011;4599;50.906;6.786;2023-08-12T10:04:12;1.87;;;1.40;;
9128;SDS011;4599;50.906;6.786;2023-08-12T10:08:40;1.53;;;1.07;;
9128;SDS011;4599;50.906;6.786;2023-08-12T10:13:05;2.37;;;1.20;;
9128;SDS011;4599;50.906;6.786;2023-08-12T10:17:27;0.80;;;0.80;;
9128;SDS011;4599;50.906;6.786;2023-08-12T10:21:58;3.97;;;1.57;;
9128;SDS011;4599;50.906;6.786;2023-08-12T10:26:22;2.17;;;1.43;;
9128;SDS011;4599;50.906;6.786;2023-08-12T10:30:46;2.50;;;1.23;;
9128;SDS011;4599;50.906;6.786;2023-08-12T10:35:08;1.93;;;1.10;;
9128;SDS011;4599;50.906;6.786;2023-08-12T10:39:31;3.37;;;1.20;;
9128;SDS011;4599;50.906;6.786;2023-08-12T10:43:54;2.40;;;1.20;;
9128;SDS011;4599;50.906;6.786;2023-08-12T10:48:20;2.13;;;1.43;;
9128;SDS011;4599;50.906;6.786;2023-08-12T10:52:43;1.30;;;1.20;;
9128;SDS011;4599;50.906;6.786;2023-08-12T10:57:07;1.60;;;1.50;;
9128;SDS011;4599;50.906;6.786;2023-08-12T11:01:30;2.27;;;1.30;;
9128;SDS011;4599;50.906;6.786;2023-08-12T11:05:54;4.23;;;1.70;;
9128;SDS011;4599;50.906;6.786;2023-08-12T11:10:17;2.80;;;1.33;;
9128;SDS011;4599;50.906;6.786;2023-08-12T11:14:47;2.17;;;1.50;;
9128;SDS011;4599;50.906;6.786;2023-08-12T11:19:10;1.50;;;1.40;;
9128;SDS011;4599;50.906;6.786;2023-08-12T11:23:34;4.60;;;1.80;;
9128;SDS011;4599;50.906;6.786;2023-08-12T11:28:01;7.00;;;1.50;;
9128;SDS011;4599;50.906;6.786;2023-08-12T11:32:23;4.70;;;1.43;;
9128;SDS011;4599;50.906;6.786;2023-08-12T11:36:45;2.40;;;1.50;;
9128;SDS011;4599;50.906;6.786;2023-08-12T11:41:08;1.90;;;1.30;;
9128;SDS011;4599;50.906;6.786;2023-08-12T11:45:30;2.80;;;1.40;;
9128;SDS011;4599;50.906;6.786;2023-08-12T11:49:52;1.83;;;1.20;;
9128;SDS011;4599;50.906;6.786;2023-08-12T11:54:14;3.30;;;1.37;;
9128;SDS011;4599;50.906;6.786;2023-08-12T11:58:38;2.73;;;1.00;;
9128;SDS011;4599;50.906;6.786;2023-08-12T12:03:15;1.83;;;1.10;;
9128;SDS011;4599;50.906;6.786;2023-08-12T12:07:37;1.10;;;0.80;;
9128;SDS011;4599;50.906;6.786;2023-08-12T12:12:02;0.97;;;0.90;;
9128;SDS011;4599;50.906;6.786;2023-08-12T12:16:26;0.97;;;0.97;;
9128;SDS011;4599;50.906;6.786;2023-08-12T12:20:59;1.90;;;1.00;;
9128;SDS011;4599;50.906;6.786;2023-08-12T12:25:21;1.10;;;1.00;;
9128;SDS011;4599;50.906;6.786;2023-08-12T12:29:44;3.47;;;1.23;;
9128;SDS011;4599;50.906;6.786;2023-08-12T12:34:08;1.67;;;1.07;;
9128;SDS011;4599;50.906;6.786;2023-08-12T12:38:29;6.70;;;1.40;;
9128;SDS011;4599;50.906;6.786;2023-08-12T12:42:52;4.77;;;1.20;;
9128;SDS011;4599;50.906;6.786;2023-08-12T12:47:14;1.67;;;1.20;;
9128;SDS011;4599;50.906;6.786;2023-08-12T12:51:37;1.43;;;1.20;;
9128;SDS011;4599;50.906;6.786;2023-08-12T12:56:00;1.97;;;1.13;;
9128;SDS011;4599;50.906;6.786;2023-08-12T13:00:22;1.40;;;1.30;;
9128;SDS011;4599;50.906;6.786;2023-08-12T13:04:44;2.70;;;0.83;;
9128;SDS011;4599;50.906;6.786;2023-08-12T13:09:07;0.90;;;0.77;;
9128;SDS011;4599;50.906;6.786;2023-08-12T13:13:32;1.10;;;0.80;;
9128;SDS011;4599;50.906;6.786;2023-08-12T13:17:53;0.80;;;0.80;;
9128;SDS011;4599;50.906;6.786;2023-08-12T13:22:15;0.80;;;0.80;;
9128;SDS011;4599;50.906;6.786;2023-08-12T13:26:39;1.50;;;0.80;;
9128;SDS011;4599;50.906;6.786;2023-08-12T13:31:01;0.60;;;0.60;;
9128;SDS011;4599;50.906;6.786;2023-08-12T13:35:23;0.60;;;0.60;;
9128;SDS011;4599;50.906;6.786;2023-08-12T13:39:44;0.90;;;0.70;;
9128;SDS011;4599;50.906;6.786;2023-08-12T13:44:08;0.70;;;0.70;;
9128;SDS011;4599;50.906;6.786;2023-08-12T13:48:34;0.50;;;0.50;;
9128;SDS011;4599;50.906;6.786;2023-08-12T13:53:05;1.27;;;0.70;;
9128;SDS011;4599;50.906;6.786;2023-08-12T13:57:26;0.60;;;0.60;;
9128;SDS011;4599;50.906;6.786;2023-08-12T14:01:52;1.20;;;0.70;;
9128;SDS011;4599;50.906;6.786;2023-08-12T14:06:15;0.70;;;0.60;;
9128;SDS011;4599;50.906;6.786;2023-08-12T14:10:37;1.80;;;0.80;;
9128;SDS011;4599;50.906;6.786;2023-08-12T14:14:59;1.70;;;0.80;;
9128;SDS011;4599;50.906;6.786;2023-08-12T14:19:23;1.03;;;0.77;;
9128;SDS011;4599;50.906;6.786;2023-08-12T14:23:44;1.53;;;0.90;;
9128;SDS011;4599;50.906;6.786;2023-08-12T14:28:07;0.83;;;0.83;;
9128;SDS011;4599;50.906;6.786;2023-08-12T14:32:29;1.60;;;0.73;;
9128;SDS011;4599;50.906;6.786;2023-08-12T14:36:52;1.23;;;0.80;;
9128;SDS011;4599;50.906;6.786;2023-08-12T14:41:14;2.10;;;0.80;;
9128;SDS011;4599;50.906;6.786;2023-08-12T14:45:36;1.17;;;0.70;;
9128;SDS011;4599;50.906;6.786;2023-08-12T14:49:58;1.00;;;0.77;;
9128;SDS011;4599;50.906;6.786;2023-08-12T14:54:24;2.17;;;0.87;;
9128;SDS011;4599;50.906;6.786;2023-08-12T14:58:46;1.50;;;0.87;;
9128;SDS011;4599;50.906;6.786;2023-08-12T15:03:08;0.97;;;0.80;;
9128;SDS011;4599;50.906;6.786;2023-08-12T15:07:30;1.73;;;1.10;;
9128;SDS011;4599;50.906;6.786;2023-08-12T15:11:53;2.40;;;0.90;;
9128;SDS011;4599;50.906;6.786;2023-08-12T15:16:15;1.70;;;1.10;;
9128;SDS011;4599;50.906;6.786;2023-08-12T15:20:37;2.43;;;0.90;;
9128;SDS011;4599;50.906;6.786;2023-08-12T15:24:59;4.53;;;1.00;;
9128;SDS011;4599;50.906;6.786;2023-08-12T15:29:22;1.40;;;0.93;;
9128;SDS011;4599;50.906;6.786;2023-08-12T15:33:44;2.60;;;0.90;;
9128;SDS011;4599;50.906;6.786;2023-08-12T15:38:06;2.17;;;1.03;;
9128;SDS011;4599;50.906;6.786;2023-08-12T15:42:28;1.27;;;0.90;;
9128;SDS011;4599;50.906;6.786;2023-08-12T15:46:52;1.13;;;1.00;;
9128;SDS011;4599;50.906;6.786;2023-08-12T15:51:13;1.33;;;0.80;;
9128;SDS011;4599;50.906;6.786;2023-08-12T15:55:35;1.60;;;1.00;;
9128;SDS011;4599;50.906;6.786;2023-08-12T15:59:58;1.70;;;1.10;;
9128;SDS011;4599;50.906;6.786;2023-08-12T16:04:21;2.83;;;1.13;;
9128;SDS011;4599;50.906;6.786;2023-08-12T16:08:43;1.97;;;1.10;;
9128;SDS011;4599;50.906;6.786;2023-08-12T16:13:25;1.60;;;0.90;;
9128;SDS011;4599;50.906;6.786;2023-08-12T16:17:47;2.50;;;1.60;;
9128;SDS011;4599;50.906;6.786;2023-08-12T16:22:12;4.03;;;1.33;;
9128;SDS011;4599;50.906;6.786;2023-08-12T16:26:49;1.47;;;1.20;;
9128;SDS011;4599;50.906;6.786;2023-08-12T16:31:29;10.93;;;9.83;;
9128;SDS011;4599;50.906;6.786;2023-08-12T16:35:52;43.33;;;38.87;;
9128;SDS011;4599;50.906;6.786;2023-08-12T16:40:15;14.80;;;13.13;;
9128;SDS011;4599;50.906;6.786;2023-08-12T16:44:37;12.53;;;11.23;;
9128;SDS011;4599;50.906;6.786;2023-08-12T16:49:01;29.17;;;26.17;;
9128;SDS011;4599;50.906;6.786;2023-08-12T16:53:23;11.13;;;9.63;;
9128;SDS011;4599;50.906;6.786;2023-08-12T16:57:46;4.87;;;3.90;;
9128;SDS011;4599;50.906;6.786;2023-08-12T17:02:08;6.37;;;4.23;;
9128;SDS011;4599;50.906;6.786;2023-08-12T17:06:30;8.90;;;3.60;;
9128;SDS011;4599;50.906;6.786;2023-08-12T17:10:52;2.70;;;1.67;;
9128;SDS011;4599;50.906;6.786;2023-08-12T17:15:16;2.13;;;1.43;;
9128;SDS011;4599;50.906;6.786;2023-08-12T17:19:37;4.93;;;1.50;;
9128;SDS011;4599;50.906;6.786;2023-08-12T17:24:00;3.87;;;1.73;;
9128;SDS011;4599;50.906;6.786;2023-08-12T17:28:22;4.43;;;1.50;;
9128;SDS011;4599;50.906;6.786;2023-08-12T17:32:45;3.33;;;1.50;;
9128;SDS011;4599;50.906;6.786;2023-08-12T17:37:07;3.37;;;1.87;;
9128;SDS011;4599;50.906;6.786;2023-08-12T17:41:29;2.77;;;1.60;;
9128;SDS011;4599;50.906;6.786;2023-08-12T17:45:51;3.07;;;1.67;;
9128;SDS011;4599;50.906;6.786;2023-08-12T17:50:14;3.40;;;1.77;;
9128;SDS011;4599;50.906;6.786;2023-08-12T17:54:37;6.30;;;1.70;;
9128;SDS011;4599;50.906;6.786;2023-08-12T17:58:59;3.40;;;1.83;;
9128;SDS011;4599;50.906;6.786;2023-08-12T18:03:20;2.63;;;1.60;;
9128;SDS011;4599;50.906;6.786;2023-08-12T18:07:44;2.90;;;1.60;;
9128;SDS011;4599;50.906;6.786;2023-08-12T18:12:06;3.20;;;1.40;;
9128;SDS011;4599;50.906;6.786;2023-08-12T18:16:28;5.23;;;1.53;;
9128;SDS011;4599;50.906;6.786;2023-08-12T18:20:50;5.00;;;2.10;;
9128;SDS011;4599;50.906;6.786;2023-08-12T18:25:13;7.23;;;1.60;;
9128;SDS011;4599;50.906;6.786;2023-08-12T18:29:35;4.40;;;1.83;;
9128;SDS011;4599;50.906;6.786;2023-08-12T18:33:57;4.00;;;1.47;;
9128;SDS011;4599;50.906;6.786;2023-08-12T18:38:19;3.40;;;1.50;;
9128;SDS011;4599;50.906;6.786;2023-08-12T18:42:42;3.37;;;2.00;;
9128;SDS011;4599;50.906;6.786;2023-08-12T18:47:05;6.17;;;1.80;;
9128;SDS011;4599;50.906;6.786;2023-08-12T18:51:27;8.23;;;1.90;;
9128;SDS011;4599;50.906;6.786;2023-08-12T18:55:49;10.27;;;1.90;;
9128;SDS011;4599;50.906;6.786;2023-08-12T19:00:13;6.70;;;1.70;;
9128;SDS011;4599;50.906;6.786;2023-08-12T19:04:37;4.93;;;1.67;;
9128;SDS011;4599;50.906;6.786;2023-08-12T19:09:00;7.10;;;1.67;;
9128;SDS011;4599;50.906;6.786;2023-08-12T19:13:22;10.43;;;1.87;;
9128;SDS011;4599;50.906;6.786;2023-08-12T19:17:46;5.63;;;1.90;;
9128;SDS011;4599;50.906;6.786;2023-08-12T19:22:08;7.20;;;1.67;;
9128;SDS011;4599;50.906;6.786;2023-08-12T19:26:31;7.27;;;2.07;;
9128;SDS011;4599;50.906;6.786;2023-08-12T19:30:53;7.23;;;1.70;;
9128;SDS011;4599;50.906;6.786;2023-08-12T19:35:17;5.13;;;1.67;;
9128;SDS011;4599;50.906;6.786;2023-08-12T19:39:39;7.90;;;1.97;;
9128;SDS011;4599;50.906;6.786;2023-08-12T19:44:01;3.80;;;2.33;;
9128;SDS011;4599;50.906;6.786;2023-08-12T19:48:24;4.97;;;1.90;;
9128;SDS011;4599;50.906;6.786;2023-08-12T19:52:48;7.17;;;1.70;;
9128;SDS011;4599;50.906;6.786;2023-08-12T19:57:10;6.20;;;2.00;;
9128;SDS011;4599;50.906;6.786;2023-08-12T20:01:32;4.90;;;1.70;;
9128;SDS011;4599;50.906;6.786;2023-08-12T20:05:54;6.23;;;1.90;;
9128;SDS011;4599;50.906;6.786;2023-08-12T20:10:19;5.20;;;1.80;;
9128;SDS011;4599;50.906;6.786;2023-08-12T20:14:41;5.20;;;1.60;;
9128;SDS011;4599;50.906;6.786;2023-08-12T20:19:03;3.07;;;1.60;;
9128;SDS011;4599;50.906;6.786;2023-08-12T20:23:25;6.63;;;1.60;;
9128;SDS011;4599;50.906;6.786;2023-08-12T20:27:48;5.03;;;1.63;;
9128;SDS011;4599;50.906;6.786;2023-08-12T20:32:10;3.10;;;1.60;;
9128;SDS011;4599;50.906;6.786;2023-08-12T20:36:33;9.33;;;1.93;;
9128;SDS011;4599;50.906;6.786;2023-08-12T20:40:54;6.50;;;1.60;;
9128;SDS011;4599;50.906;6.786;2023-08-12T20:45:21;6.47;;;1.73;;
9128;SDS011;4599;50.906;6.786;2023-08-12T20:49:44;9.97;;;1.60;;
9128;SDS011;4599;50.906;6.786;2023-08-12T20:54:06;7.33;;;2.33;;
9128;SDS011;4599;50.906;6.786;2023-08-12T20:58:28;4.60;;;1.63;;
9128;SDS011;4599;50.906;6.786;2023-08-12T21:02:52;3.10;;;1.80;;
9128;SDS011;4599;50.906;6.786;2023-08-12T21:07:14;4.50;;;1.90;;
9128;SDS011;4599;50.906;6.786;2023-08-12T21:11:36;3.03;;;1.60;;
9128;SDS011;4599;50.906;6.786;2023-08-12T21:15:58;6.37;;;1.90;;
9128;SDS011;4599;50.906;6.786;2023-08-12T21:20:21;5.13;;;1.47;;
9128;SDS011;4599;50.906;6.786;2023-08-12T21:24:43;5.13;;;1.83;;
9128;SDS011;4599;50.906;6.786;2023-08-12T21:29:10;3.80;;;1.30;;
9128;SDS011;4599;50.906;6.786;2023-08-12T21:33:32;2.97;;;1.90;;
9128;SDS011;4599;50.906;6.786;2023-08-12T21:37:57;4.67;;;1.67;;
9128;SDS011;4599;50.906;6.786;2023-08-12T21:42:19;6.60;;;1.93;;
9128;SDS011;4599;50.906;6.786;2023-08-12T21:46:42;3.20;;;1.67;;
9128;SDS011;4599;50.906;6.786;2023-08-12T21:51:06;5.17;;;1.70;;
9128;SDS011;4599;50.906;6.786;2023-08-12T21:55:31;6.23;;;1.80;;
9128;SDS011;4599;50.906;6.786;2023-08-12T21:59:53;4.17;;;1.60;;
9128;SDS011;4599;50.906;6.786;2023-08-12T22:04:17;4.17;;;1.60;;
9128;SDS011;4599;50.906;6.786;2023-08-12T22:08:39;3.93;;;1.87;;
9128;SDS011;4599;50.906;6.786;2023-08-12T22:13:04;5.63;;;1.87;;
9128;SDS011;4599;50.906;6.786;2023-08-12T22:17:26;3.80;;;1.70;;
9128;SDS011;4599;50.906;6.786;2023-08-12T22:21:49;5.47;;;1.77;;
9128;SDS011;4599;50.906;6.786;2023-08-12T22:26:18;5.07;;;2.00;;
9128;SDS011;4599;50.906;6.786;2023-08-12T22:30:46;8.67;;;1.87;;
9128;SDS011;4599;50.906;6.786;2023-08-12T22:35:08;5.30;;;1.80;;
9128;SDS011;4599;50.906;6.786;2023-08-12T22:39:32;6.50;;;2.37;;
9128;SDS011;4599;50.906;6.786;2023-08-12T22:43:53;3.53;;;1.77;;
9128;SDS011;4599;50.906;6.786;2023-08-12T22:48:17;5.40;;;1.80;;
9128;SDS011;4599;50.906;6.786;2023-08-12T22:52:40;5.90;;;1.90;;
9128;SDS011;4599;50.906;6.786;2023-08-12T22:57:02;7.43;;;1.90;;
9128;SDS011;4599;50.906;6.786;2023-08-12T23:01:26;6.00;;;1.90;;
9128;SDS011;4599;50.906;6.786;2023-08-12T23:05:50;9.47;;;2.10;;
9128;SDS011;4599;50.906;6.786;2023-08-12T23:10:13;6.43;;;1.80;;
9128;SDS011;4599;50.906;6.786;2023-08-12T23:14:35;5.07;;;1.63;;
9128;SDS011;4599;50.906;6.786;2023-08-12T23:18:57;6.47;;;2.00;;
9128;SDS011;4599;50.906;6.786;2023-08-12T23:23:22;10.10;;;1.80;;
9128;SDS011;4599;50.906;6.786;2023-08-12T23:27:44;6.27;;;2.07;;
9128;SDS011;4599;50.906;6.786;2023-08-12T23:32:07;8.80;;;1.93;;
9128;SDS011;4599;50.906;6.786;2023-08-12T23:36:29;5.13;;;2.13;;
9128;SDS011;4599;50.906;6.786;2023-08-12T23:40:52;7.03;;;2.43;;
9128;SDS011;4599;50.906;6.786;2023-08-12T23:45:14;7.13;;;2.10;;
9128;SDS011;4599;50.906;6.786;2023-08-12T23:49:36;9.57;;;2.00;;
9128;SDS011;4599;50.906;6.786;2023-08-12T23:53:58;8.37;;;2.23;;
9128;SDS011;4599;50.906;6.786;2023-08-12T23:58:22;5.17;;;2.07;;
